Time;durP1;ratioP1;P1;durP2;ratioP2;P2;SDS_P1;SDS_P2;PMS_P1;PMS_P2;Temp;Humidity;BMP_temperature;BMP_pressure;BME280_temperature;BME280_humidity;BME280_pressure;Samples;Min_cycle;Max_cycle;Signal;HPM_P1;HPM_P2
2023/11/23 00:01:47;;;;;;;0.10;0.10;;;;;;;9.08;84.10;102005.59;5014313;28;20116;-82
2023/11/23 00:04:12;;;;;;;0.10;0.10;;;;;;;8.99;83.99;102010.94;5032419;28;20512;-81
2023/11/23 00:06:38;;;;;;;0.10;0.10;;;;;;;8.98;84.14;102004.09;4997891;28;20029;-82
2023/11/23 00:09:06;;;;;;;0.20;0.20;;;;;;;8.95;84.45;102004.13;5013867;28;20037;-82
2023/11/23 00:11:31;;;;;;;0.10;0.10;;;;;;;8.90;84.62;102028.31;4998341;28;20056;-82
2023/11/23 00:13:57;;;;;;;0.20;0.20;;;;;;;9.03;84.59;102025.47;4998184;28;20482;-82
2023/11/23 00:16:22;;;;;;;0.10;0.10;;;;;;;8.95;83.57;102020.50;4997770;28;20117;-82
2023/11/23 00:18:48;;;;;;;0.20;0.20;;;;;;;8.96;82.82;102036.84;4997659;28;20426;-81
2023/11/23 00:21:13;;;;;;;0.20;0.20;;;;;;;8.86;82.80;102031.84;4997676;28;20040;-82
2023/11/23 00:23:40;;;;;;;0.20;0.20;;;;;;;8.78;82.40;102020.81;5014067;28;20541;-82
2023/11/23 00:26:05;;;;;;;0.10;0.10;;;;;;;8.67;82.23;102033.06;4997635;28;20025;-81
2023/11/23 00:28:31;;;;;;;0.20;0.20;;;;;;;8.71;83.05;102037.28;4981388;28;20092;-82
2023/11/23 00:30:58;;;;;;;0.10;0.10;;;;;;;8.67;83.69;102035.66;4996958;28;20029;-82
2023/11/23 00:33:23;;;;;;;0.10;0.10;;;;;;;8.71;82.91;102039.03;4982049;28;20644;-81
2023/11/23 00:35:49;;;;;;;0.10;0.10;;;;;;;8.69;83.50;102051.09;4997452;28;20034;-82
2023/11/23 00:38:18;;;;;;;0.20;0.20;;;;;;;8.67;83.39;102045.97;4981253;28;20044;-81
2023/11/23 00:40:44;;;;;;;0.13;0.13;;;;;;;8.62;83.51;102056.38;4982230;28;20040;-81
2023/11/23 00:43:10;;;;;;;0.10;0.10;;;;;;;8.62;84.04;102063.25;4997465;28;20446;-82
2023/11/23 00:45:37;;;;;;;0.10;0.10;;;;;;;8.59;83.90;102065.91;4996885;28;20072;-81
2023/11/23 00:48:03;;;;;;;0.10;0.10;;;;;;;8.60;83.25;102055.53;4981243;28;20124;-82
2023/11/23 00:50:28;;;;;;;0.20;0.20;;;;;;;8.75;82.94;102079.34;4997197;28;20033;-81
2023/11/23 00:52:54;;;;;;;0.17;0.17;;;;;;;8.68;83.54;102083.78;5013399;28;20033;-81
2023/11/23 00:55:20;;;;;;;0.20;0.20;;;;;;;8.64;82.86;102071.81;4996482;28;20029;-81
2023/11/23 00:57:46;;;;;;;0.20;0.20;;;;;;;8.66;83.21;102080.41;4996756;28;20021;-81
2023/11/23 01:00:16;;;;;;;0.20;0.20;;;;;;;8.65;82.98;102072.66;4996646;28;20092;-81
2023/11/23 01:02:42;;;;;;;0.20;0.20;;;;;;;8.51;83.47;102054.84;4997785;28;20411;-81
2023/11/23 01:05:07;;;;;;;0.10;0.10;;;;;;;8.58;82.74;102080.53;5013740;28;20037;-82
2023/11/23 01:07:34;;;;;;;0.20;0.20;;;;;;;8.63;83.17;102093.31;4997346;28;20073;-81
2023/11/23 01:09:59;;;;;;;0.10;0.10;;;;;;;8.60;83.81;102091.66;4997223;28;20026;-82
2023/11/23 01:12:25;;;;;;;0.10;0.10;;;;;;;8.57;83.43;102096.88;4996496;28;20404;-82
2023/11/23 01:14:50;;;;;;;0.10;0.10;;;;;;;8.59;83.35;102095.13;4996706;28;20026;-81
2023/11/23 01:17:16;;;;;;;0.20;0.20;;;;;;;8.53;84.08;102089.22;4980647;28;20498;-81
2023/11/23 01:19:41;;;;;;;0.20;0.20;;;;;;;8.49;83.97;102069.50;4996840;28;20037;-81
2023/11/23 01:22:07;;;;;;;0.10;0.10;;;;;;;8.50;83.94;102078.94;4980620;28;20029;-82
2023/11/23 01:24:32;;;;;;;0.10;0.10;;;;;;;8.63;83.81;102085.59;5013181;28;20431;-82
2023/11/23 01:26:58;;;;;;;0.20;0.20;;;;;;;8.55;83.14;102077.13;4996171;28;20132;-81
2023/11/23 01:29:23;;;;;;;0.10;0.10;;;;;;;8.62;83.67;102083.88;4996547;28;20033;-82
2023/11/23 01:31:48;;;;;;;0.20;0.20;;;;;;;8.58;82.87;102077.94;5013306;28;20040;-81
2023/11/23 01:34:14;;;;;;;0.10;0.10;;;;;;;8.56;83.22;102095.19;5012953;28;20095;-81
2023/11/23 01:36:39;;;;;;;0.10;0.10;;;;;;;8.46;83.33;102072.16;4996565;28;20033;-81
2023/11/23 01:39:07;;;;;;;0.20;0.20;;;;;;;8.59;82.76;102095.13;5012593;28;20483;-82
2023/11/23 01:41:32;;;;;;;0.10;0.10;;;;;;;8.50;83.10;102069.50;4997166;28;20037;-81
2023/11/23 01:43:58;;;;;;;0.10;0.10;;;;;;;8.64;83.61;102087.28;5030744;28;20040;-81
2023/11/23 01:46:23;;;;;;;0.10;0.10;;;;;;;8.61;83.60;102082.19;5012641;28;20507;-81
2023/11/23 01:48:49;;;;;;;0.10;0.10;;;;;;;8.53;83.57;102084.91;4996080;28;20025;-81
2023/11/23 01:51:14;;;;;;;0.20;0.20;;;;;;;8.50;83.08;102078.94;4996225;28;20036;-81
2023/11/23 01:53:40;;;;;;;0.20;0.20;;;;;;;8.54;83.37;102090.91;5012678;28;20483;-81
2023/11/23 01:56:06;;;;;;;0.10;0.10;;;;;;;8.52;83.11;102080.63;4980026;28;20029;-82
2023/11/23 01:58:31;;;;;;;0.10;0.10;;;;;;;8.43;83.44;102073.03;4996323;28;20460;-81
2023/11/23 02:00:57;;;;;;;0.10;0.10;;;;;;;8.55;82.40;102077.13;4980072;28;20040;-81
2023/11/23 02:03:22;;;;;;;0.10;0.10;;;;;;;8.38;82.75;102072.28;4980149;28;20034;-81
2023/11/23 02:05:48;;;;;;;0.20;0.20;;;;;;;8.28;82.54;102058.66;4996484;28;20036;-81
2023/11/23 02:08:13;;;;;;;0.20;0.20;;;;;;;8.28;82.01;102078.44;4998515;28;20033;-81
2023/11/23 02:10:39;;;;;;;0.20;0.20;;;;;;;8.20;81.68;102080.28;4983595;28;20499;-81
2023/11/23 02:13:04;;;;;;;0.20;0.20;;;;;;;8.22;81.56;102078.53;5000125;28;20030;-81
2023/11/23 02:15:30;;;;;;;0.17;0.17;;;;;;;8.27;81.03;102087.03;4999829;28;20080;-81
2023/11/23 02:18:08;;;;;;;0.20;0.20;;;;;;;8.13;81.00;102069.19;4984062;28;20026;-81
2023/11/23 02:20:34;;;;;;;0.20;0.20;;;;;;;8.14;80.40;102068.31;5017170;28;20065;-81
2023/11/23 02:23:03;;;;;;;0.10;0.10;;;;;;;8.09;81.26;102062.41;4999962;28;20064;-81
2023/11/23 02:25:28;;;;;;;0.20;0.20;;;;;;;8.02;80.93;102055.63;5016880;28;20570;-81
2023/11/23 02:27:54;;;;;;;0.20;0.20;;;;;;;8.06;81.07;102072.75;4999673;28;20112;-81
2023/11/23 02:30:19;;;;;;;0.20;0.20;;;;;;;8.09;80.66;102088.19;4999926;28;20033;-81
2023/11/23 02:32:49;;;;;;;0.20;0.20;;;;;;;8.10;80.58;102078.72;4999497;28;20462;-81
2023/11/23 02:35:15;;;;;;;0.20;0.20;;;;;;;8.00;80.66;102072.84;4999886;28;20414;-81
2023/11/23 02:37:41;;;;;;;0.20;0.20;;;;;;;8.16;80.59;102082.06;4983464;28;20026;-81
2023/11/23 02:40:07;;;;;;;0.20;0.20;;;;;;;8.12;80.13;102088.13;4999521;28;20036;-81
2023/11/23 02:42:32;;;;;;;0.20;0.20;;;;;;;8.19;80.11;102084.59;5016390;28;20033;-81
2023/11/23 02:44:58;;;;;;;0.20;0.20;;;;;;;8.15;80.30;102085.50;4982873;28;20107;-81
2023/11/23 02:47:24;;;;;;;0.20;0.20;;;;;;;8.15;81.01;102088.06;4999384;28;20040;-82
2023/11/23 02:49:49;;;;;;;0.20;0.20;;;;;;;8.14;80.78;102086.38;4999321;28;20026;-82
2023/11/23 02:52:15;;;;;;;0.10;0.10;;;;;;;8.21;80.42;102095.72;4999368;28;20029;-82
2023/11/23 02:54:40;;;;;;;0.20;0.20;;;;;;;8.07;80.66;102077.06;5015637;28;20057;-82
2023/11/23 02:57:06;;;;;;;0.10;0.10;;;;;;;8.13;80.76;102083.81;5015792;28;20040;-81
2023/11/23 02:59:31;;;;;;;0.20;0.20;;;;;;;8.21;80.41;102093.13;5015730;28;20037;-81
2023/11/23 03:01:57;;;;;;;0.20;0.20;;;;;;;8.04;80.70;102061.63;4999208;28;20030;-81
2023/11/23 03:04:22;;;;;;;0.20;0.20;;;;;;;8.10;81.05;102095.03;5032892;28;20507;-81
2023/11/23 03:06:48;;;;;;;0.20;0.20;;;;;;;8.14;81.14;102099.25;4998870;28;20573;-81
2023/11/23 03:09:13;;;;;;;0.20;0.20;;;;;;;8.07;81.70;102084.78;4998534;28;20029;-81
2023/11/23 03:11:40;;;;;;;0.10;0.10;;;;;;;8.20;80.87;102106.06;4999040;28;20025;-81
2023/11/23 03:14:05;;;;;;;0.20;0.20;;;;;;;8.21;80.35;102097.44;4983038;28;20044;-81
2023/11/23 03:16:32;;;;;;;0.10;0.10;;;;;;;8.17;80.83;102091.50;5015656;28;20029;-81
2023/11/23 03:18:58;;;;;;;0.20;0.20;;;;;;;8.05;80.87;102071.91;4981808;28;20048;-81
2023/11/23 03:21:24;;;;;;;0.10;0.10;;;;;;;8.22;81.12;102084.53;5015484;28;20125;-81
2023/11/23 03:23:50;;;;;;;0.10;0.10;;;;;;;8.22;80.59;102081.09;4998662;28;20033;-81
2023/11/23 03:26:16;;;;;;;0.20;0.20;;;;;;;8.21;80.23;102100.88;4982732;28;20052;-81
2023/11/23 03:28:41;;;;;;;0.10;0.10;;;;;;;8.25;80.34;102101.66;4998598;28;20415;-81
2023/11/23 03:31:07;;;;;;;0.20;0.20;;;;;;;8.25;79.55;102102.50;4998332;28;20049;-81
2023/11/23 03:33:33;;;;;;;0.10;0.10;;;;;;;8.21;79.19;102107.75;4982630;28;20044;-82
2023/11/23 03:35:58;;;;;;;0.20;0.20;;;;;;;7.99;79.48;102081.47;5014680;28;20022;-81
2023/11/23 03:38:24;;;;;;;0.20;0.20;;;;;;;8.09;78.92;102113.97;5014634;28;20065;-81
2023/11/23 03:40:49;;;;;;;0.20;0.20;;;;;;;7.97;79.07;102093.53;5014803;28;20570;-81
2023/11/23 03:43:15;;;;;;;0.10;0.10;;;;;;;8.03;78.84;102106.31;4982319;28;20053;-81
2023/11/23 03:45:41;;;;;;;0.10;0.10;;;;;;;8.02;79.36;102118.34;4998063;28;20431;-81
2023/11/23 03:48:06;;;;;;;0.10;0.10;;;;;;;8.00;79.45;102124.41;5014573;28;20044;-81
2023/11/23 03:50:33;;;;;;;0.10;0.10;;;;;;;7.90;79.05;102117.69;4998364;28;20041;-82
2023/11/23 03:52:59;;;;;;;0.10;0.10;;;;;;;7.99;79.68;102114.97;4998009;28;20041;-82
2023/11/23 03:55:24;;;;;;;0.20;0.20;;;;;;;8.04;79.43;102129.47;4982140;28;20061;-81
2023/11/23 03:57:50;;;;;;;0.20;0.20;;;;;;;8.09;78.62;102134.56;4982066;28;20029;-82
2023/11/23 04:00:20;;;;;;;0.10;0.10;;;;;;;7.98;78.60;102134.75;5014599;28;20025;-82
2023/11/23 04:02:46;;;;;;;0.20;0.20;;;;;;;8.05;78.51;102153.53;4998620;28;20486;-82
2023/11/23 04:05:17;;;;;;;0.15;0.15;;;;;;;8.01;79.19;102152.72;5032114;28;20061;-81
2023/11/23 04:07:43;;;;;;;0.20;0.20;;;;;;;7.92;78.04;102139.13;4998020;28;20088;-81
2023/11/23 04:10:09;;;;;;;0.10;0.10;;;;;;;7.93;78.95;102149.41;5013999;28;20022;-81
2023/11/23 04:12:35;;;;;;;0.13;0.13;;;;;;;7.88;79.00;102163.22;4998080;28;20021;-81
2023/11/23 04:15:00;;;;;;;0.20;0.20;;;;;;;7.97;79.05;102179.41;5014369;28;20048;-81
2023/11/23 04:17:26;;;;;;;0.10;0.10;;;;;;;7.95;78.47;102172.56;4998112;28;20064;-81
2023/11/23 04:19:54;;;;;;;0.10;0.10;;;;;;;7.98;78.37;102175.97;4997604;28;20029;-81
2023/11/23 04:22:21;;;;;;;0.20;0.20;;;;;;;7.94;78.48;102183.75;4998262;28;20026;-81
2023/11/23 04:24:47;;;;;;;0.10;0.10;;;;;;;7.92;78.79;102180.34;4997747;28;20032;-81
2023/11/23 04:27:13;;;;;;;0.20;0.20;;;;;;;7.89;79.34;102172.66;4974794;28;20033;-85
2023/11/23 04:29:39;;;;;;;0.10;0.10;;;;;;;7.88;78.60;102178.69;4977723;28;20407;-87
2023/11/23 04:32:06;;;;;;;0.20;0.20;;;;;;;7.99;78.44;102192.28;4961725;28;20030;-86
2023/11/23 04:34:32;;;;;;;0.20;0.20;;;;;;;7.97;78.88;102191.47;4994243;28;20033;-86
2023/11/23 04:36:57;;;;;;;0.20;0.20;;;;;;;8.10;78.81;102202.44;4961047;28;20069;-86
2023/11/23 04:39:23;;;;;;;0.10;0.10;;;;;;;8.05;79.66;102195.59;4961300;28;20029;-88
2023/11/23 04:41:48;;;;;;;0.20;0.20;;;;;;;8.06;79.13;102204.19;4977754;28;20041;-87
2023/11/23 04:44:15;;;;;;;0.17;0.17;;;;;;;7.97;79.26;102199.19;4993820;28;20025;-85
2023/11/23 04:46:41;;;;;;;0.10;0.10;;;;;;;8.00;78.54;102204.28;4978069;28;20057;-88
2023/11/23 04:49:06;;;;;;;0.13;0.13;;;;;;;7.82;79.44;102186.50;4977315;28;20018;-88
2023/11/23 04:51:32;;;;;;;0.20;0.20;;;;;;;7.83;79.84;102196.78;4977719;28;20061;-88
2023/11/23 04:53:57;;;;;;;0.20;0.20;;;;;;;7.67;79.59;102160.06;4994056;28;20519;-89
2023/11/23 04:56:23;;;;;;;0.13;0.13;;;;;;;7.79;79.59;102179.66;4993486;28;20061;-88
2023/11/23 04:58:48;;;;;;;0.20;0.20;;;;;;;7.67;79.97;102169.47;4994046;28;20044;-88
2023/11/23 05:01:14;;;;;;;0.15;0.15;;;;;;;7.68;79.62;102163.47;4977007;28;20041;-88
2023/11/23 05:03:39;;;;;;;0.17;0.17;;;;;;;7.76;78.71;102185.69;4993617;28;20026;-89
2023/11/23 05:06:06;;;;;;;0.20;0.20;;;;;;;7.63;79.04;102171.25;4976810;28;20098;-87
2023/11/23 05:08:36;;;;;;;0.10;0.10;;;;;;;7.75;79.42;102191.72;4993959;28;20053;-88
2023/11/23 05:11:02;;;;;;;0.10;0.10;;;;;;;7.83;78.92;102201.06;4978851;28;20048;-89
2023/11/23 05:13:28;;;;;;;0.20;0.20;;;;;;;7.85;78.38;102196.75;4993889;28;20548;-87
2023/11/23 05:15:53;;;;;;;0.20;0.20;;;;;;;7.54;79.43;102167.94;4977733;28;20026;-87
2023/11/23 05:18:19;;;;;;;0.10;0.10;;;;;;;7.79;78.50;102207.16;5009433;28;20076;-88
2023/11/23 05:20:44;;;;;;;0.10;0.10;;;;;;;7.73;78.71;102213.22;4975035;28;20044;-81
2023/11/23 05:23:10;;;;;;;0.17;0.17;;;;;;;7.74;79.14;102209.75;5010289;28;20121;-88
2023/11/23 05:25:35;;;;;;;0.20;0.20;;;;;;;7.79;79.83;102210.56;4976504;28;20532;-91
2023/11/23 05:28:01;;;;;;;0.20;0.20;;;;;;;7.83;79.76;102204.50;4977330;28;20487;-85
2023/11/23 05:30:27;;;;;;;0.20;0.20;;;;;;;7.94;79.57;102214.66;4993441;28;20029;-89
2023/11/23 05:32:52;;;;;;;0.20;0.20;;;;;;;7.87;79.17;102215.63;4976803;28;20508;-84
2023/11/23 05:35:18;;;;;;;0.20;0.20;;;;;;;7.86;79.79;102206.19;5009941;28;20030;-89
2023/11/23 05:37:43;;;;;;;0.20;0.20;;;;;;;7.89;79.54;102213.88;4992386;28;20057;-86
2023/11/23 05:40:11;;;;;;;0.10;0.10;;;;;;;7.87;80.03;102193.31;4992897;28;20408;-88
2023/11/23 05:42:38;;;;;;;0.20;0.20;;;;;;;7.96;79.10;102207.75;5010719;28;20030;-89
2023/11/23 05:45:05;;;;;;;0.10;0.10;;;;;;;7.82;78.90;102189.06;4974155;28;20466;-86
2023/11/23 05:47:30;;;;;;;0.10;0.10;;;;;;;7.78;79.27;102196.00;5005936;28;20029;-87
2023/11/23 05:50:01;;;;;;;0.20;0.20;;;;;;;7.82;79.34;102213.09;5009476;28;20033;-87
2023/11/23 05:52:29;;;;;;;0.20;0.20;;;;;;;7.80;80.08;102220.00;4979352;28;20060;-92
2023/11/23 05:54:56;;;;;;;0.20;0.20;;;;;;;7.84;80.07;102215.66;4964746;28;20036;-92
2023/11/23 05:57:21;;;;;;;0.10;0.10;;;;;;;7.91;79.93;102222.44;4957617;28;20038;-85
2023/11/23 05:59:47;;;;;;;0.20;0.20;;;;;;;7.93;80.50;102223.28;4957634;28;20030;-88
2023/11/23 06:02:12;;;;;;;0.20;0.20;;;;;;;7.77;80.38;102189.13;4973442;28;20117;-90
2023/11/23 06:04:39;;;;;;;0.20;0.20;;;;;;;7.88;79.64;102230.22;4994708;28;20381;-90
2023/11/23 06:07:10;;;;;;;0.13;0.13;;;;;;;7.70;79.96;102214.09;4993324;28;20037;-88
2023/11/23 06:09:35;;;;;;;0.20;0.20;;;;;;;7.82;79.79;102225.13;4970591;28;20559;-83
2023/11/23 06:12:01;;;;;;;0.20;0.20;;;;;;;7.93;79.42;102239.59;4965211;28;20113;-85
2023/11/23 06:14:26;;;;;;;0.20;0.20;;;;;;;7.80;79.54;102225.16;4936565;28;20038;-86
2023/11/23 06:16:52;;;;;;;0.10;0.10;;;;;;;7.94;80.42;102238.72;4966201;28;20066;-91
2023/11/23 06:19:18;;;;;;;0.20;0.20;;;;;;;7.93;79.88;102241.31;4965908;28;20054;-87
2023/11/23 06:21:45;;;;;;;0.20;0.20;;;;;;;7.93;79.72;102241.31;4956861;28;20500;-93
2023/11/23 06:24:10;;;;;;;0.10;0.10;;;;;;;7.94;80.14;102243.88;4955972;28;20114;-84
2023/11/23 06:26:36;;;;;;;0.20;0.20;;;;;;;7.95;78.79;102252.44;4959867;28;20034;-89
2023/11/23 06:29:01;;;;;;;0.10;0.10;;;;;;;7.95;79.39;102252.44;4954245;28;20066;-86
2023/11/23 06:31:27;;;;;;;0.20;0.20;;;;;;;7.68;78.81;102226.16;4970883;28;20026;-83
2023/11/23 06:33:53;;;;;;;0.20;0.20;;;;;;;7.83;78.18;102266.34;4993403;28;20030;-92
2023/11/23 06:36:19;;;;;;;0.20;0.20;;;;;;;7.90;78.26;102261.97;4992436;28;20455;-89
2023/11/23 06:38:44;;;;;;;0.20;0.20;;;;;;;7.73;79.23;102275.88;4981242;28;20125;-90
2023/11/23 06:41:20;;;;;;;0.20;0.20;;;;;;;7.55;78.72;102245.19;4957552;28;20081;-88
2023/11/23 06:43:49;;;;;;;0.10;0.10;;;;;;;7.73;79.21;102272.47;4972002;28;20038;-86
2023/11/23 06:46:15;;;;;;;0.10;0.10;;;;;;;7.75;79.42;102265.56;4987645;28;20792;-90
2023/11/23 06:48:41;;;;;;;0.13;0.13;;;;;;;7.77;79.12;102266.44;4985842;28;20101;-86
2023/11/23 06:51:08;;;;;;;0.20;0.20;;;;;;;7.82;79.20;102263.78;5007954;28;20033;-85
2023/11/23 06:53:35;;;;;;;0.10;0.10;;;;;;;7.85;79.16;102256.00;4991772;28;20037;-85
2023/11/23 06:56:02;;;;;;;0.10;0.10;;;;;;;7.83;79.03;102255.19;5013105;28;20033;-83
2023/11/23 06:58:28;;;;;;;0.10;0.10;;;;;;;7.88;79.31;102249.13;5013308;28;20096;-82
2023/11/23 07:00:54;;;;;;;0.15;0.15;;;;;;;7.92;78.70;102244.75;5011478;28;20033;-80
2023/11/23 07:03:21;;;;;;;0.10;0.10;;;;;;;7.95;78.25;102247.28;5010570;28;20117;-81
2023/11/23 07:05:47;;;;;;;0.17;0.17;;;;;;;7.74;78.72;102231.22;5010665;28;20026;-86
2023/11/23 07:08:12;;;;;;;0.20;0.20;;;;;;;7.96;78.49;102239.56;4988720;28;20072;-94
2023/11/23 07:10:41;;;;;;;0.10;0.10;;;;;;;8.08;79.75;102246.28;4989411;28;20492;-91
2023/11/23 07:13:07;;;;;;;0.10;0.10;;;;;;;8.05;78.51;102238.56;4974428;28;20026;-91
2023/11/23 07:15:33;;;;;;;0.20;0.20;;;;;;;7.95;78.59;102247.28;4980086;28;20507;-86
2023/11/23 07:17:59;;;;;;;0.17;0.17;;;;;;;7.90;77.86;102231.06;5006463;28;20037;-89
2023/11/23 07:20:26;;;;;;;0.20;0.20;;;;;;;7.81;77.70;102193.38;5004251;28;20085;-87
2023/11/23 07:22:52;;;;;;;0.10;0.10;;;;;;;8.19;83.41;102230.69;5016584;28;20030;-88
2023/11/23 07:25:18;;;;;;;0.10;0.10;;;;;;;8.33;79.89;102227.03;5017988;28;20040;-87
2023/11/23 07:27:44;;;;;;;0.10;0.10;;;;;;;8.26;75.96;102240.91;5010654;28;20037;-93
2023/11/23 07:30:10;;;;;;;0.20;0.20;;;;;;;8.20;76.60;102233.22;5012050;28;20503;-84
2023/11/23 07:32:36;;;;;;;0.15;0.15;;;;;;;8.13;77.74;102217.88;4994144;28;20026;-84
2023/11/23 07:35:02;;;;;;;0.20;0.20;;;;;;;8.14;77.02;102235.88;5009781;28;20548;-84
2023/11/23 07:37:28;;;;;;;0.13;0.13;;;;;;;8.17;76.87;102233.28;4987349;28;20047;-84
2023/11/23 07:39:54;;;;;;;0.20;0.20;;;;;;;8.09;77.65;102229.94;5024184;28;20018;-89
2023/11/23 07:42:19;;;;;;;0.20;0.20;;;;;;;7.99;77.71;102205.16;4987590;28;20052;-86
2023/11/23 07:44:46;;;;;;;0.17;0.17;;;;;;;8.07;77.43;102213.66;4977152;28;20058;-88
2023/11/23 07:47:13;;;;;;;0.20;0.20;;;;;;;7.87;77.81;102190.72;4978192;28;20061;-90
2023/11/23 07:49:40;;;;;;;0.20;0.20;;;;;;;7.92;77.34;102214.69;5001939;28;20029;-85
2023/11/23 07:52:06;;;;;;;0.20;0.20;;;;;;;7.97;77.80;102219.81;4979285;28;20044;-89
2023/11/23 07:54:32;;;;;;;0.20;0.20;;;;;;;7.95;78.16;102226.69;5015128;28;20600;-83
2023/11/23 07:56:57;;;;;;;0.10;0.10;;;;;;;7.98;77.89;102242.13;5019822;28;20088;-92
2023/11/23 07:59:23;;;;;;;0.10;0.10;;;;;;;8.04;78.54;102254.91;5004033;28;20039;-90
2023/11/23 08:01:48;;;;;;;0.20;0.20;;;;;;;7.98;77.92;102242.13;4986818;28;20483;-83
2023/11/23 08:04:14;;;;;;;0.20;0.20;;;;;;;7.84;77.97;102225.97;5021081;28;20040;-89
2023/11/23 08:06:40;;;;;;;0.20;0.20;;;;;;;7.85;79.08;102238.81;4987044;28;20033;-92
2023/11/23 08:09:05;;;;;;;0.10;0.10;;;;;;;7.92;78.62;102242.19;5009873;28;20017;-85
2023/11/23 08:11:31;;;;;;;0.10;0.10;;;;;;;7.85;79.14;102237.97;4992587;28;20021;-86
2023/11/23 08:13:57;;;;;;;0.10;0.10;;;;;;;7.97;78.36;102243.00;5009983;28;20072;-83
2023/11/23 08:16:23;;;;;;;0.20;0.20;;;;;;;8.13;78.15;102248.78;5001627;28;20034;-86
2023/11/23 08:18:49;;;;;;;0.20;0.20;;;;;;;8.00;78.30;102232.66;4989448;28;20423;-88
2023/11/23 08:21:14;;;;;;;0.10;0.10;;;;;;;8.09;77.41;102219.63;5010228;28;20565;-83
2023/11/23 08:23:41;;;;;;;0.20;0.20;;;;;;;8.16;77.80;102225.53;4981246;28;20061;-91
2023/11/23 08:26:07;;;;;;;0.10;0.10;;;;;;;8.19;77.11;102218.66;4994829;28;20030;-86
2023/11/23 08:28:33;;;;;;;0.10;0.10;;;;;;;8.13;77.29;102218.72;4989137;28;20064;-88
2023/11/23 08:30:58;;;;;;;0.20;0.20;;;;;;;8.20;78.02;102235.81;5010268;28;20048;-82
2023/11/23 08:33:24;;;;;;;0.20;0.20;;;;;;;8.18;78.30;102216.94;5002509;28;20021;-84
2023/11/23 08:35:53;;;;;;;0.20;0.20;;;;;;;8.35;80.52;102208.97;5010265;28;20030;-85
2023/11/23 08:38:19;;;;;;;0.20;0.20;;;;;;;8.52;83.45;102213.91;4994407;28;20502;-80
2023/11/23 08:41:00;;;;;;;0.20;0.20;;;;;;;8.24;77.47;102185.03;4993044;28;20567;-83
2023/11/23 08:43:25;;;;;;;0.20;0.20;;;;;;;8.47;76.60;102213.13;4993403;28;20496;-86
2023/11/23 08:45:51;;;;;;;0.20;0.20;;;;;;;8.41;77.08;102215.78;5011517;28;20046;-88
2023/11/23 08:48:16;;;;;;;0.20;0.20;;;;;;;8.31;76.34;102202.16;5009199;28;20045;-85
2023/11/23 08:50:42;;;;;;;0.10;0.10;;;;;;;8.19;75.90;102187.72;5010497;28;20033;-86
2023/11/23 08:53:07;;;;;;;0.10;0.10;;;;;;;8.34;76.20;102202.97;5001017;28;20038;-88
2023/11/23 08:55:33;;;;;;;0.20;0.20;;;;;;;8.40;75.72;102206.34;5014933;28;20426;-87
2023/11/23 08:57:59;;;;;;;0.20;0.20;;;;;;;8.48;76.15;102209.69;5017571;28;20029;-88
2023/11/23 09:00:25;;;;;;;0.20;0.20;;;;;;;8.49;75.62;102203.63;5012174;28;20112;-91
2023/11/23 09:02:53;;;;;;;0.20;0.20;;;;;;;8.51;75.39;102199.31;5018723;28;20029;-91
2023/11/23 09:05:18;;;;;;;0.10;0.10;;;;;;;8.52;75.30;102198.41;4979648;28;20041;-91
2023/11/23 09:07:44;;;;;;;0.10;0.10;;;;;;;8.32;75.52;102175.47;4997078;28;20033;-89
2023/11/23 09:10:09;;;;;;;0.20;0.20;;;;;;;8.37;75.79;102188.34;5013120;28;20472;-86
2023/11/23 09:12:36;;;;;;;0.10;0.10;;;;;;;8.37;75.93;102188.34;4987158;28;20033;-92
2023/11/23 09:15:04;;;;;;;0.10;0.10;;;;;;;8.43;74.93;102202.00;4993295;28;20030;-92
2023/11/23 09:17:33;;;;;;;0.20;0.20;;;;;;;8.42;75.00;102199.44;4992277;28;20637;-90
2023/11/23 09:19:58;;;;;;;0.10;0.10;;;;;;;8.41;75.77;102193.44;4959566;28;20074;-91
2023/11/23 09:22:24;;;;;;;0.20;0.20;;;;;;;8.46;75.84;102191.66;5019384;28;20093;-88
2023/11/23 09:24:50;;;;;;;0.20;0.20;;;;;;;8.50;75.43;102192.44;5001253;28;20021;-91
2023/11/23 09:27:16;;;;;;;0.10;0.10;;;;;;;8.94;81.52;102167.63;5026677;28;20032;-88
2023/11/23 09:29:41;;;;;;;0.20;0.20;;;;;;;9.09;77.83;102188.88;4980765;28;20034;-89
2023/11/23 09:32:07;;;;;;;0.20;0.20;;;;;;;8.98;74.08;102187.34;5008202;28;20074;-88
2023/11/23 09:34:33;;;;;;;0.20;0.20;;;;;;;8.98;73.37;102190.78;5012440;28;20034;-88
2023/11/23 09:36:59;;;;;;;0.10;0.10;;;;;;;8.84;72.81;102177.25;4996767;28;20076;-92
2023/11/23 09:39:24;;;;;;;0.10;0.10;;;;;;;8.78;73.04;102178.22;4981229;28;20036;-88
2023/11/23 09:41:50;;;;;;;0.20;0.20;;;;;;;8.54;73.50;102148.50;5012419;28;20022;-90
2023/11/23 09:44:16;;;;;;;0.20;0.20;;;;;;;8.59;73.52;102167.34;5010127;28;20077;-87
2023/11/23 09:46:43;;;;;;;0.20;0.20;;;;;;;8.51;74.60;102152.88;4995123;28;20050;-85
2023/11/23 09:49:08;;;;;;;0.20;0.20;;;;;;;8.54;75.34;102160.56;5006415;28;20025;-84
2023/11/23 09:51:37;;;;;;;0.20;0.20;;;;;;;8.47;75.69;102143.50;5008031;28;20101;-87
2023/11/23 09:54:03;;;;;;;0.20;0.20;;;;;;;8.71;75.75;102158.56;5008297;28;20088;-89
2023/11/23 09:56:29;;;;;;;0.20;0.20;;;;;;;8.73;75.23;102153.38;5004317;28;20146;-84
2023/11/23 09:58:55;;;;;;;0.20;0.20;;;;;;;8.69;74.69;102147.41;5017953;28;20030;-81
2023/11/23 10:01:21;;;;;;;0.20;0.20;;;;;;;8.70;73.83;102138.78;5024167;28;20052;-87
2023/11/23 10:03:51;;;;;;;0.20;0.20;;;;;;;8.73;73.36;102143.91;5007476;28;20038;-86
2023/11/23 10:06:17;;;;;;;0.20;0.20;;;;;;;8.68;73.66;102130.25;5003160;28;20095;-85
2023/11/23 10:08:43;;;;;;;0.10;0.10;;;;;;;8.65;73.54;102113.94;5007996;28;20038;-83
2023/11/23 10:11:09;;;;;;;0.20;0.20;;;;;;;8.77;73.75;102119.75;5009727;28;20030;-83
2023/11/23 10:13:34;;;;;;;0.20;0.20;;;;;;;8.77;74.10;102109.44;5005947;28;20391;-83
2023/11/23 10:16:00;;;;;;;0.20;0.20;;;;;;;8.86;73.41;102113.59;4996400;28;20025;-83
2023/11/23 10:18:36;;;;;;;0.10;0.10;;;;;;;8.77;72.89;102087.94;5011257;28;20029;-83
2023/11/23 10:21:02;;;;;;;0.20;0.20;;;;;;;8.82;72.89;102104.19;4994469;28;20030;-81
2023/11/23 10:23:28;;;;;;;0.20;0.20;;;;;;;8.88;73.64;102096.34;5019926;28;20026;-83
2023/11/23 10:25:54;;;;;;;0.10;0.10;;;;;;;8.94;73.83;102092.78;5009179;28;20034;-83
2023/11/23 10:28:22;;;;;;;0.10;0.10;;;;;;;8.96;72.85;102093.63;5008324;28;20022;-85
2023/11/23 10:30:49;;;;;;;0.10;0.10;;;;;;;8.97;73.29;102077.25;4989489;28;20128;-85
2023/11/23 10:33:14;;;;;;;0.20;0.20;;;;;;;8.87;74.19;102069.69;5027321;28;20042;-88
2023/11/23 10:35:52;;;;;;;0.20;0.20;;;;;;;8.93;74.21;102088.50;4995499;28;20141;-89
2023/11/23 10:38:18;;;;;;;0.10;0.10;;;;;;;8.81;73.91;102080.09;5012226;28;20109;-85
2023/11/23 10:40:45;;;;;;;0.20;0.20;;;;;;;8.85;74.29;102081.75;5014619;28;20037;-85
2023/11/23 10:43:12;;;;;;;0.10;0.10;;;;;;;8.68;73.98;102033.94;5009792;28;20033;-90
2023/11/23 10:45:37;;;;;;;0.20;0.20;;;;;;;8.93;73.61;102067.84;4996414;28;20050;-89
2023/11/23 10:48:03;;;;;;;0.20;0.20;;;;;;;8.81;73.78;102049.13;4995965;28;20088;-84
2023/11/23 10:50:29;;;;;;;0.20;0.20;;;;;;;8.99;73.49;102065.16;5012932;28;20068;-83
2023/11/23 10:52:58;;;;;;;0.20;0.20;;;;;;;8.97;73.68;102064.34;4978591;28;20026;-85
2023/11/23 10:55:24;;;;;;;0.10;0.10;;;;;;;8.97;72.94;102052.28;4996406;28;20086;-83
2023/11/23 10:57:55;;;;;;;0.20;0.20;;;;;;;9.11;72.14;102057.16;4995539;28;20113;-83
2023/11/23 11:00:24;;;;;;;0.20;0.20;;;;;;;9.05;73.14;102057.31;4980006;28;20041;-89
2023/11/23 11:02:51;;;;;;;0.20;0.20;;;;;;;8.97;72.97;102041.13;5010386;28;20038;-90
2023/11/23 11:05:36;;;;;;;0.20;0.20;;;;;;;9.06;73.19;102043.50;5013098;28;20029;-88
2023/11/23 11:08:07;;;;;;;0.20;0.20;;;;;;;8.97;72.45;102041.97;4993728;28;20381;-82
2023/11/23 11:10:42;;;;;;;0.20;0.20;;;;;;;8.80;73.28;102020.78;4999113;28;20109;-83
2023/11/23 11:13:11;;;;;;;0.10;0.10;;;;;;;8.82;72.55;102030.19;5014752;28;20397;-83
2023/11/23 11:15:38;;;;;;;0.20;0.20;;;;;;;8.77;72.93;102039.75;5031367;28;20490;-84
2023/11/23 11:18:07;;;;;;;0.20;0.20;;;;;;;8.80;74.41;102021.63;5013154;28;20045;-84
2023/11/23 11:20:39;;;;;;;0.10;0.10;;;;;;;8.68;74.97;102011.56;4978900;28;20033;-84
2023/11/23 11:23:04;;;;;;;0.20;0.20;;;;;;;8.57;76.03;102023.81;5007777;28;20054;-86
2023/11/23 11:25:39;;;;;;;0.20;0.20;;;;;;;8.60;76.87;102008.25;4998501;28;20062;-89
2023/11/23 11:28:09;;;;;;;0.20;0.20;;;;;;;8.73;75.53;101999.41;5030889;28;20033;-82
2023/11/23 11:30:37;;;;;;;0.20;0.20;;;;;;;8.82;75.53;101990.63;4994756;28;20036;-88